sensor_id;sensor_type;location;lat;lon;timestamp;temperature;humidity
23445;DHT22;11895;48.738;9.320;2022-08-20T00:01:15;19.40;99.90
23445;DHT22;11895;48.738;9.320;2022-08-20T00:03:42;19.40;99.90
23445;DHT22;11895;48.738;9.320;2022-08-20T00:06:19;19.30;99.90
23445;DHT22;11895;48.738;9.320;2022-08-20T00:08:49;19.30;99.90
23445;DHT22;11895;48.738;9.320;2022-08-20T00:11:19;19.20;99.90
23445;DHT22;11895;48.738;9.320;2022-08-20T00:13:52;19.10;99.90
23445;DHT22;11895;48.738;9.320;2022-08-20T00:16:25;19.20;99.90
23445;DHT22;11895;48.738;9.320;2022-08-20T00:18:58;19.20;99.90
23445;DHT22;11895;48.738;9.320;2022-08-20T00:21:28;19.10;99.90
23445;DHT22;11895;48.738;9.320;2022-08-20T00:23:57;19.20;99.90
23445;DHT22;11895;48.738;9.320;2022-08-20T00:26:25;19.10;99.90
23445;DHT22;11895;48.738;9.320;2022-08-20T00:28:52;19.20;99.90
23445;DHT22;11895;48.738;9.320;2022-08-20T00:31:20;19.30;99.90
23445;DHT22;11895;48.738;9.320;2022-08-20T00:33:49;19.20;99.90
23445;DHT22;11895;48.738;9.320;2022-08-20T00:36:17;19.20;99.90
23445;DHT22;11895;48.738;9.320;2022-08-20T00:38:45;19.30;99.90
23445;DHT22;11895;48.738;9.320;2022-08-20T00:41:16;19.10;99.90
23445;DHT22;11895;48.738;9.320;2022-08-20T00:46:44;19.00;99.90
23445;DHT22;11895;48.738;9.320;2022-08-20T00:49:20;18.90;99.90
23445;DHT22;11895;48.738;9.320;2022-08-20T00:52:16;18.80;99.90
23445;DHT22;11895;48.738;9.320;2022-08-20T00:58:08;19.00;99.90
23445;DHT22;11895;48.738;9.320;2022-08-20T01:04:20;19.00;99.90
23445;DHT22;11895;48.738;9.320;2022-08-20T01:06:47;18.90;99.90
23445;DHT22;11895;48.738;9.320;2022-08-20T01:12:38;18.90;99.90
23445;DHT22;11895;48.738;9.320;2022-08-20T01:15:13;18.90;99.90
23445;DHT22;11895;48.738;9.320;2022-08-20T01:21:08;19.00;99.90
23445;DHT22;11895;48.738;9.320;2022-08-20T01:30:28;19.20;99.90
23445;DHT22;11895;48.738;9.320;2022-08-20T01:36:24;19.20;99.90
23445;DHT22;11895;48.738;9.320;2022-08-20T01:39:00;19.10;99.90
23445;DHT22;11895;48.738;9.320;2022-08-20T01:54:40;18.80;99.90
23445;DHT22;11895;48.738;9.320;2022-08-20T01:57:11;18.80;99.90
23445;DHT22;11895;48.738;9.320;2022-08-20T01:59:44;18.70;99.90
23445;DHT22;11895;48.738;9.320;2022-08-20T02:02:11;18.70;99.90
23445;DHT22;11895;48.738;9.320;2022-08-20T02:04:39;18.70;99.90
23445;DHT22;11895;48.738;9.320;2022-08-20T02:07:07;18.80;99.90
23445;DHT22;11895;48.738;9.320;2022-08-20T02:09:43;18.80;99.90
23445;DHT22;11895;48.738;9.320;2022-08-20T02:12:13;19.00;99.90
23445;DHT22;11895;48.738;9.320;2022-08-20T02:14:45;18.90;99.90
23445;DHT22;11895;48.738;9.320;2022-08-20T02:17:17;18.90;99.90
23445;DHT22;11895;48.738;9.320;2022-08-20T02:22:38;18.90;99.90
23445;DHT22;11895;48.738;9.320;2022-08-20T02:25:21;19.00;99.90
23445;DHT22;11895;48.738;9.320;2022-08-20T02:27:52;18.90;99.90
23445;DHT22;11895;48.738;9.320;2022-08-20T02:30:27;19.00;99.90
23445;DHT22;11895;48.738;9.320;2022-08-20T02:33:02;18.90;99.90
23445;DHT22;11895;48.738;9.320;2022-08-20T02:35:34;18.80;99.90
23445;DHT22;11895;48.738;9.320;2022-08-20T02:38:02;18.70;99.90
23445;DHT22;11895;48.738;9.320;2022-08-20T02:40:29;18.60;99.90
23445;DHT22;11895;48.738;9.320;2022-08-20T02:43:00;18.50;99.90
23445;DHT22;11895;48.738;9.320;2022-08-20T02:45:30;18.50;99.90
23445;DHT22;11895;48.738;9.320;2022-08-20T02:48:14;18.50;99.90
23445;DHT22;11895;48.738;9.320;2022-08-20T02:50:48;18.60;99.90
23445;DHT22;11895;48.738;9.320;2022-08-20T02:53:19;18.50;99.90
23445;DHT22;11895;48.738;9.320;2022-08-20T02:55:47;18.50;99.90
23445;DHT22;11895;48.738;9.320;2022-08-20T02:58:14;18.50;99.90
23445;DHT22;11895;48.738;9.320;2022-08-20T03:00:43;18.50;99.90
23445;DHT22;11895;48.738;9.320;2022-08-20T03:03:11;18.40;99.90
23445;DHT22;11895;48.738;9.320;2022-08-20T03:05:42;18.50;99.90
23445;DHT22;11895;48.738;9.320;2022-08-20T03:08:13;18.60;99.90
23445;DHT22;11895;48.738;9.320;2022-08-20T03:10:42;18.60;99.90
23445;DHT22;11895;48.738;9.320;2022-08-20T03:13:12;18.60;99.90
23445;DHT22;11895;48.738;9.320;2022-08-20T03:15:43;18.50;99.90
23445;DHT22;11895;48.738;9.320;2022-08-20T03:18:24;18.60;99.90
23445;DHT22;11895;48.738;9.320;2022-08-20T03:20:55;18.50;99.90
23445;DHT22;11895;48.738;9.320;2022-08-20T03:23:23;18.40;99.90
23445;DHT22;11895;48.738;9.320;2022-08-20T03:25:50;18.30;99.90
23445;DHT22;11895;48.738;9.320;2022-08-20T03:28:18;18.20;99.90
23445;DHT22;11895;48.738;9.320;2022-08-20T03:30:46;18.10;99.90
23445;DHT22;11895;48.738;9.320;2022-08-20T03:33:14;18.10;99.90
23445;DHT22;11895;48.738;9.320;2022-08-20T03:35:42;18.10;99.90
23445;DHT22;11895;48.738;9.320;2022-08-20T03:38:10;18.10;99.90
23445;DHT22;11895;48.738;9.320;2022-08-20T03:40:40;18.10;99.90
23445;DHT22;11895;48.738;9.320;2022-08-20T03:43:09;18.10;99.90
23445;DHT22;11895;48.738;9.320;2022-08-20T03:45:38;18.00;99.90
23445;DHT22;11895;48.738;9.320;2022-08-20T03:48:14;17.90;99.90
23445;DHT22;11895;48.738;9.320;2022-08-20T03:50:44;17.90;99.90
23445;DHT22;11895;48.738;9.320;2022-08-20T03:53:13;17.90;99.90
23445;DHT22;11895;48.738;9.320;2022-08-20T03:55:42;17.90;99.90
23445;DHT22;11895;48.738;9.320;2022-08-20T03:58:21;17.90;99.90
23445;DHT22;11895;48.738;9.320;2022-08-20T04:01:02;18.00;99.90
23445;DHT22;11895;48.738;9.320;2022-08-20T04:03:35;18.10;99.90
23445;DHT22;11895;48.738;9.320;2022-08-20T04:06:02;18.00;99.90
23445;DHT22;11895;48.738;9.320;2022-08-20T04:08:30;18.00;99.90
23445;DHT22;11895;48.738;9.320;2022-08-20T04:10:58;18.00;99.90
23445;DHT22;11895;48.738;9.320;2022-08-20T04:13:26;18.00;99.90
23445;DHT22;11895;48.738;9.320;2022-08-20T04:15:56;18.10;99.90
23445;DHT22;11895;48.738;9.320;2022-08-20T04:18:24;18.20;99.90
23445;DHT22;11895;48.738;9.320;2022-08-20T04:20:52;18.20;99.90
23445;DHT22;11895;48.738;9.320;2022-08-20T04:23:20;18.20;99.90
23445;DHT22;11895;48.738;9.320;2022-08-20T04:25:48;18.20;99.90
23445;DHT22;11895;48.738;9.320;2022-08-20T04:28:17;18.10;99.90
23445;DHT22;11895;48.738;9.320;2022-08-20T04:30:51;18.20;99.90
23445;DHT22;11895;48.738;9.320;2022-08-20T04:33:26;18.20;99.90
23445;DHT22;11895;48.738;9.320;2022-08-20T04:36:01;18.40;99.90
23445;DHT22;11895;48.738;9.320;2022-08-20T04:38:32;18.40;99.90
23445;DHT22;11895;48.738;9.320;2022-08-20T04:41:15;18.20;99.90
23445;DHT22;11895;48.738;9.320;2022-08-20T04:43:50;18.10;99.90
23445;DHT22;11895;48.738;9.320;2022-08-20T04:46:20;18.00;99.90
23445;DHT22;11895;48.738;9.320;2022-08-20T04:48:51;18.10;99.90
23445;DHT22;11895;48.738;9.320;2022-08-20T04:51:19;18.10;99.90
23445;DHT22;11895;48.738;9.320;2022-08-20T04:53:50;18.20;99.90
23445;DHT22;11895;48.738;9.320;2022-08-20T04:56:24;18.20;99.90
23445;DHT22;11895;48.738;9.320;2022-08-20T04:58:56;18.20;99.90
23445;DHT22;11895;48.738;9.320;2022-08-20T05:01:27;18.20;99.90
23445;DHT22;11895;48.738;9.320;2022-08-20T05:03:55;18.30;99.90
23445;DHT22;11895;48.738;9.320;2022-08-20T05:06:25;18.30;99.90
23445;DHT22;11895;48.738;9.320;2022-08-20T05:08:56;18.40;99.90
23445;DHT22;11895;48.738;9.320;2022-08-20T05:11:26;18.50;99.90
23445;DHT22;11895;48.738;9.320;2022-08-20T05:14:03;18.50;99.90
23445;DHT22;11895;48.738;9.320;2022-08-20T05:16:34;18.40;99.90
23445;DHT22;11895;48.738;9.320;2022-08-20T05:19:04;18.40;99.90
23445;DHT22;11895;48.738;9.320;2022-08-20T05:21:38;18.40;99.90
23445;DHT22;11895;48.738;9.320;2022-08-20T05:24:05;18.30;99.90
23445;DHT22;11895;48.738;9.320;2022-08-20T05:26:34;18.20;99.90
23445;DHT22;11895;48.738;9.320;2022-08-20T05:29:02;18.20;99.90
23445;DHT22;11895;48.738;9.320;2022-08-20T05:31:31;18.10;99.90
23445;DHT22;11895;48.738;9.320;2022-08-20T05:34:01;18.20;99.90
23445;DHT22;11895;48.738;9.320;2022-08-20T05:36:46;18.20;99.90
23445;DHT22;11895;48.738;9.320;2022-08-20T05:39:16;18.00;99.90
23445;DHT22;11895;48.738;9.320;2022-08-20T05:41:46;18.10;99.90
23445;DHT22;11895;48.738;9.320;2022-08-20T05:44:17;18.00;99.90
23445;DHT22;11895;48.738;9.320;2022-08-20T05:46:45;18.00;99.90
23445;DHT22;11895;48.738;9.320;2022-08-20T05:49:15;17.90;99.90
23445;DHT22;11895;48.738;9.320;2022-08-20T05:51:46;17.90;99.90
23445;DHT22;11895;48.738;9.320;2022-08-20T05:54:15;17.90;99.90
23445;DHT22;11895;48.738;9.320;2022-08-20T05:56:42;17.80;99.90
23445;DHT22;11895;48.738;9.320;2022-08-20T05:59:10;17.80;99.90
23445;DHT22;11895;48.738;9.320;2022-08-20T06:01:40;17.90;99.90
23445;DHT22;11895;48.738;9.320;2022-08-20T06:04:09;18.00;99.90
23445;DHT22;11895;48.738;9.320;2022-08-20T06:07:02;18.00;99.90
23445;DHT22;11895;48.738;9.320;2022-08-20T06:09:32;18.20;99.90
23445;DHT22;11895;48.738;9.320;2022-08-20T06:12:01;18.20;99.90
23445;DHT22;11895;48.738;9.320;2022-08-20T06:14:32;18.30;99.90
23445;DHT22;11895;48.738;9.320;2022-08-20T06:17:06;18.30;99.90
23445;DHT22;11895;48.738;9.320;2022-08-20T06:19:39;18.40;99.90
23445;DHT22;11895;48.738;9.320;2022-08-20T06:22:10;18.70;99.90
23445;DHT22;11895;48.738;9.320;2022-08-20T06:24:50;18.90;99.90
23445;DHT22;11895;48.738;9.320;2022-08-20T06:27:17;19.00;99.90
23445;DHT22;11895;48.738;9.320;2022-08-20T06:29:45;19.10;99.90
23445;DHT22;11895;48.738;9.320;2022-08-20T06:34:41;19.40;99.90
23445;DHT22;11895;48.738;9.320;2022-08-20T06:37:21;19.60;99.90
23445;DHT22;11895;48.738;9.320;2022-08-20T06:40:13;19.80;99.90
23445;DHT22;11895;48.738;9.320;2022-08-20T06:42:44;20.10;99.90
23445;DHT22;11895;48.738;9.320;2022-08-20T06:45:19;20.20;99.90
23445;DHT22;11895;48.738;9.320;2022-08-20T06:47:51;20.40;99.90
23445;DHT22;11895;48.738;9.320;2022-08-20T06:50:22;20.50;99.90
23445;DHT22;11895;48.738;9.320;2022-08-20T06:53:15;20.60;99.90
23445;DHT22;11895;48.738;9.320;2022-08-20T06:55:46;20.70;99.90
23445;DHT22;11895;48.738;9.320;2022-08-20T06:58:18;20.80;99.90
23445;DHT22;11895;48.738;9.320;2022-08-20T07:01:04;21.00;99.90
23445;DHT22;11895;48.738;9.320;2022-08-20T07:03:37;21.10;99.90
23445;DHT22;11895;48.738;9.320;2022-08-20T07:06:20;21.20;99.90
23445;DHT22;11895;48.738;9.320;2022-08-20T07:08:51;21.40;99.90
23445;DHT22;11895;48.738;9.320;2022-08-20T07:11:19;21.40;99.90
23445;DHT22;11895;48.738;9.320;2022-08-20T07:13:54;21.60;99.90
23445;DHT22;11895;48.738;9.320;2022-08-20T07:16:25;21.70;99.90
23445;DHT22;11895;48.738;9.320;2022-08-20T07:18:52;22.00;99.90
23445;DHT22;11895;48.738;9.320;2022-08-20T07:21:20;22.20;99.90
23445;DHT22;11895;48.738;9.320;2022-08-20T07:23:47;22.30;99.90
23445;DHT22;11895;48.738;9.320;2022-08-20T07:26:15;22.50;99.90
23445;DHT22;11895;48.738;9.320;2022-08-20T07:28:43;22.70;99.90
23445;DHT22;11895;48.738;9.320;2022-08-20T07:31:11;22.90;99.90
23445;DHT22;11895;48.738;9.320;2022-08-20T07:34:00;23.00;99.90
23445;DHT22;11895;48.738;9.320;2022-08-20T07:36:29;23.00;99.90
23445;DHT22;11895;48.738;9.320;2022-08-20T07:38:56;23.00;99.90
23445;DHT22;11895;48.738;9.320;2022-08-20T07:41:24;23.10;99.90
23445;DHT22;11895;48.738;9.320;2022-08-20T07:43:54;23.10;99.90
23445;DHT22;11895;48.738;9.320;2022-08-20T07:46:24;23.10;99.90
23445;DHT22;11895;48.738;9.320;2022-08-20T07:48:56;23.10;99.90
23445;DHT22;11895;48.738;9.320;2022-08-20T07:51:24;23.20;99.90
23445;DHT22;11895;48.738;9.320;2022-08-20T07:53:51;23.10;99.90
23445;DHT22;11895;48.738;9.320;2022-08-20T07:56:20;23.10;99.90
23445;DHT22;11895;48.738;9.320;2022-08-20T07:58:52;23.10;99.90
23445;DHT22;11895;48.738;9.320;2022-08-20T08:01:23;23.20;99.90
23445;DHT22;11895;48.738;9.320;2022-08-20T08:03:55;23.40;99.90
23445;DHT22;11895;48.738;9.320;2022-08-20T08:06:25;23.30;99.90
23445;DHT22;11895;48.738;9.320;2022-08-20T08:08:58;23.40;99.90
23445;DHT22;11895;48.738;9.320;2022-08-20T08:11:35;23.50;99.90
23445;DHT22;11895;48.738;9.320;2022-08-20T08:14:09;23.60;99.90
23445;DHT22;11895;48.738;9.320;2022-08-20T08:16:37;23.70;99.90
23445;DHT22;11895;48.738;9.320;2022-08-20T08:19:05;23.90;99.90
23445;DHT22;11895;48.738;9.320;2022-08-20T08:21:35;24.00;99.90
23445;DHT22;11895;48.738;9.320;2022-08-20T08:24:02;24.00;99.90
23445;DHT22;11895;48.738;9.320;2022-08-20T08:26:30;24.10;99.90
23445;DHT22;11895;48.738;9.320;2022-08-20T08:28:57;24.30;99.90
23445;DHT22;11895;48.738;9.320;2022-08-20T08:31:25;24.50;99.90
23445;DHT22;11895;48.738;9.320;2022-08-20T08:33:52;24.70;99.90
23445;DHT22;11895;48.738;9.320;2022-08-20T08:45:46;25.10;99.90
23445;DHT22;11895;48.738;9.320;2022-08-20T08:48:34;24.90;99.90
23445;DHT22;11895;48.738;9.320;2022-08-20T08:51:09;25.00;99.90
23445;DHT22;11895;48.738;9.320;2022-08-20T08:53:46;24.90;99.90
23445;DHT22;11895;48.738;9.320;2022-08-20T08:56:24;25.00;99.90
23445;DHT22;11895;48.738;9.320;2022-08-20T08:58:59;25.00;99.90
23445;DHT22;11895;48.738;9.320;2022-08-20T09:01:32;25.10;99.90
23445;DHT22;11895;48.738;9.320;2022-08-20T09:04:23;25.10;99.90
23445;DHT22;11895;48.738;9.320;2022-08-20T09:07:00;25.30;99.90
23445;DHT22;11895;48.738;9.320;2022-08-20T09:09:31;25.60;99.90
23445;DHT22;11895;48.738;9.320;2022-08-20T09:12:07;25.90;99.90
23445;DHT22;11895;48.738;9.320;2022-08-20T09:14:38;26.10;99.90
23445;DHT22;11895;48.738;9.320;2022-08-20T09:17:06;26.40;99.90
23445;DHT22;11895;48.738;9.320;2022-08-20T09:19:34;26.70;99.90
23445;DHT22;11895;48.738;9.320;2022-08-20T09:22:08;26.80;99.90
23445;DHT22;11895;48.738;9.320;2022-08-20T09:24:39;26.90;99.90
23445;DHT22;11895;48.738;9.320;2022-08-20T09:27:07;26.40;99.90
23445;DHT22;11895;48.738;9.320;2022-08-20T09:29:35;25.00;99.90
23445;DHT22;11895;48.738;9.320;2022-08-20T09:32:17;23.80;99.90
23445;DHT22;11895;48.738;9.320;2022-08-20T09:34:50;22.60;99.90
23445;DHT22;11895;48.738;9.320;2022-08-20T09:37:24;21.90;99.90
23445;DHT22;11895;48.738;9.320;2022-08-20T09:39:54;21.00;99.90
23445;DHT22;11895;48.738;9.320;2022-08-20T09:42:22;20.50;99.90
23445;DHT22;11895;48.738;9.320;2022-08-20T09:44:56;20.30;99.90
23445;DHT22;11895;48.738;9.320;2022-08-20T09:47:25;20.20;99.90
23445;DHT22;11895;48.738;9.320;2022-08-20T09:49:53;20.30;99.90
23445;DHT22;11895;48.738;9.320;2022-08-20T09:52:27;20.50;99.90
23445;DHT22;11895;48.738;9.320;2022-08-20T09:55:00;20.90;99.90
23445;DHT22;11895;48.738;9.320;2022-08-20T09:57:31;21.20;99.90
23445;DHT22;11895;48.738;9.320;2022-08-20T10:05:06;20.90;99.90
23445;DHT22;11895;48.738;9.320;2022-08-20T10:07:38;21.00;99.90
23445;DHT22;11895;48.738;9.320;2022-08-20T10:10:07;21.10;99.90
23445;DHT22;11895;48.738;9.320;2022-08-20T10:12:37;21.20;99.90
23445;DHT22;11895;48.738;9.320;2022-08-20T10:15:07;21.40;99.90
23445;DHT22;11895;48.738;9.320;2022-08-20T10:17:40;21.30;99.90
23445;DHT22;11895;48.738;9.320;2022-08-20T10:20:09;21.30;99.90
23445;DHT22;11895;48.738;9.320;2022-08-20T10:22:40;21.60;99.90
23445;DHT22;11895;48.738;9.320;2022-08-20T10:25:07;21.90;99.90
23445;DHT22;11895;48.738;9.320;2022-08-20T10:27:35;22.00;99.90
23445;DHT22;11895;48.738;9.320;2022-08-20T10:30:03;21.90;99.90
23445;DHT22;11895;48.738;9.320;2022-08-20T10:32:33;21.60;99.90
23445;DHT22;11895;48.738;9.320;2022-08-20T10:35:00;21.50;99.90
23445;DHT22;11895;48.738;9.320;2022-08-20T10:37:28;21.30;99.90
23445;DHT22;11895;48.738;9.320;2022-08-20T10:39:56;21.20;99.90
23445;DHT22;11895;48.738;9.320;2022-08-20T10:42:23;21.20;99.90
23445;DHT22;11895;48.738;9.320;2022-08-20T10:44:51;21.30;99.90
23445;DHT22;11895;48.738;9.320;2022-08-20T10:47:23;21.60;99.90
23445;DHT22;11895;48.738;9.320;2022-08-20T10:49:54;21.70;99.90
23445;DHT22;11895;48.738;9.320;2022-08-20T10:52:24;21.60;99.90
23445;DHT22;11895;48.738;9.320;2022-08-20T10:54:52;21.60;99.90
23445;DHT22;11895;48.738;9.320;2022-08-20T10:57:21;21.50;99.90
23445;DHT22;11895;48.738;9.320;2022-08-20T10:59:53;21.20;99.90
23445;DHT22;11895;48.738;9.320;2022-08-20T11:02:23;21.00;99.90
23445;DHT22;11895;48.738;9.320;2022-08-20T11:04:51;21.00;99.90
23445;DHT22;11895;48.738;9.320;2022-08-20T11:07:20;21.00;99.90
23445;DHT22;11895;48.738;9.320;2022-08-20T11:10:19;21.10;99.90
23445;DHT22;11895;48.738;9.320;2022-08-20T11:12:48;21.10;99.90
23445;DHT22;11895;48.738;9.320;2022-08-20T11:15:16;21.20;99.90
23445;DHT22;11895;48.738;9.320;2022-08-20T11:17:43;21.30;99.90
23445;DHT22;11895;48.738;9.320;2022-08-20T11:20:13;21.20;99.90
23445;DHT22;11895;48.738;9.320;2022-08-20T11:22:45;21.30;99.90
23445;DHT22;11895;48.738;9.320;2022-08-20T11:25:13;21.40;99.90
23445;DHT22;11895;48.738;9.320;2022-08-20T11:27:41;21.70;99.90
23445;DHT22;11895;48.738;9.320;2022-08-20T11:30:14;21.80;99.90
23445;DHT22;11895;48.738;9.320;2022-08-20T11:32:46;21.60;99.90
23445;DHT22;11895;48.738;9.320;2022-08-20T11:35:14;21.90;99.90
23445;DHT22;11895;48.738;9.320;2022-08-20T11:38:03;21.90;99.90
23445;DHT22;11895;48.738;9.320;2022-08-20T11:40:30;22.00;99.90
23445;DHT22;11895;48.738;9.320;2022-08-20T11:42:58;21.80;99.90
23445;DHT22;11895;48.738;9.320;2022-08-20T11:45:47;21.90;99.90
23445;DHT22;11895;48.738;9.320;2022-08-20T11:48:17;21.80;99.90
23445;DHT22;11895;48.738;9.320;2022-08-20T11:50:45;21.80;99.90
23445;DHT22;11895;48.738;9.320;2022-08-20T11:53:13;21.90;99.90
23445;DHT22;11895;48.738;9.320;2022-08-20T11:55:41;21.90;99.90
23445;DHT22;11895;48.738;9.320;2022-08-20T11:58:09;21.80;99.90
23445;DHT22;11895;48.738;9.320;2022-08-20T12:00:37;21.70;99.90
23445;DHT22;11895;48.738;9.320;2022-08-20T12:03:05;21.60;99.90
23445;DHT22;11895;48.738;9.320;2022-08-20T12:05:36;21.60;99.90
23445;DHT22;11895;48.738;9.320;2022-08-20T12:08:14;21.60;99.90
23445;DHT22;11895;48.738;9.320;2022-08-20T12:10:54;21.60;99.90
23445;DHT22;11895;48.738;9.320;2022-08-20T12:13:25;21.70;99.90
23445;DHT22;11895;48.738;9.320;2022-08-20T12:16:14;21.80;99.90
23445;DHT22;11895;48.738;9.320;2022-08-20T12:18:45;22.00;99.90
23445;DHT22;11895;48.738;9.320;2022-08-20T12:21:13;22.20;99.90
23445;DHT22;11895;48.738;9.320;2022-08-20T12:23:40;22.60;99.90
23445;DHT22;11895;48.738;9.320;2022-08-20T12:26:07;22.70;99.90
23445;DHT22;11895;48.738;9.320;2022-08-20T12:28:35;23.00;99.90
23445;DHT22;11895;48.738;9.320;2022-08-20T12:31:02;23.30;99.90
23445;DHT22;11895;48.738;9.320;2022-08-20T12:33:29;23.40;99.90
23445;DHT22;11895;48.738;9.320;2022-08-20T12:36:01;23.50;99.90
23445;DHT22;11895;48.738;9.320;2022-08-20T12:38:29;23.80;99.90
23445;DHT22;11895;48.738;9.320;2022-08-20T12:40:57;24.40;99.90
23445;DHT22;11895;48.738;9.320;2022-08-20T12:43:24;24.40;99.90
23445;DHT22;11895;48.738;9.320;2022-08-20T12:45:51;24.60;99.90
23445;DHT22;11895;48.738;9.320;2022-08-20T12:48:18;24.70;99.90
23445;DHT22;11895;48.738;9.320;2022-08-20T12:50:46;24.90;99.90
23445;DHT22;11895;48.738;9.320;2022-08-20T12:53:15;25.10;99.90
23445;DHT22;11895;48.738;9.320;2022-08-20T12:55:43;25.40;99.90
23445;DHT22;11895;48.738;9.320;2022-08-20T12:58:10;25.60;99.90
23445;DHT22;11895;48.738;9.320;2022-08-20T13:00:41;25.80;99.90
23445;DHT22;11895;48.738;9.320;2022-08-20T13:03:16;26.00;99.90
23445;DHT22;11895;48.738;9.320;2022-08-20T13:05:45;26.10;99.90
23445;DHT22;11895;48.738;9.320;2022-08-20T13:08:14;26.10;99.90
23445;DHT22;11895;48.738;9.320;2022-08-20T13:10:43;26.00;99.90
23445;DHT22;11895;48.738;9.320;2022-08-20T13:13:12;25.60;99.90
23445;DHT22;11895;48.738;9.320;2022-08-20T13:15:46;25.60;99.90
23445;DHT22;11895;48.738;9.320;2022-08-20T13:18:17;25.80;99.90
23445;DHT22;11895;48.738;9.320;2022-08-20T13:20:45;26.10;99.90
23445;DHT22;11895;48.738;9.320;2022-08-20T13:23:13;26.30;99.90
23445;DHT22;11895;48.738;9.320;2022-08-20T13:25:41;26.10;99.90
23445;DHT22;11895;48.738;9.320;2022-08-20T13:28:08;25.80;99.90
23445;DHT22;11895;48.738;9.320;2022-08-20T13:30:35;25.40;99.90
23445;DHT22;11895;48.738;9.320;2022-08-20T13:33:04;25.10;99.90
23445;DHT22;11895;48.738;9.320;2022-08-20T13:35:32;24.20;99.90
23445;DHT22;11895;48.738;9.320;2022-08-20T13:38:51;22.80;99.90
23445;DHT22;11895;48.738;9.320;2022-08-20T13:42:17;21.20;99.90
23445;DHT22;11895;48.738;9.320;2022-08-20T13:45:43;20.30;99.90
23445;DHT22;11895;48.738;9.320;2022-08-20T13:49:08;20.00;99.90
23445;DHT22;11895;48.738;9.320;2022-08-20T13:52:38;19.90;99.90
23445;DHT22;11895;48.738;9.320;2022-08-20T13:56:04;20.00;99.90
23445;DHT22;11895;48.738;9.320;2022-08-20T13:59:39;20.30;99.90
23445;DHT22;11895;48.738;9.320;2022-08-20T14:03:05;20.80;99.90
23445;DHT22;11895;48.738;9.320;2022-08-20T14:10:21;21.30;99.90
23445;DHT22;11895;48.738;9.320;2022-08-20T14:13:47;21.60;99.90
23445;DHT22;11895;48.738;9.320;2022-08-20T14:20:40;26.80;99.90
23445;DHT22;11895;48.738;9.320;2022-08-20T14:24:06;26.90;99.90
23445;DHT22;11895;48.738;9.320;2022-08-20T14:27:34;25.50;99.90
23445;DHT22;11895;48.738;9.320;2022-08-20T14:31:00;24.60;99.90
23445;DHT22;11895;48.738;9.320;2022-08-20T14:34:26;24.10;99.90
23445;DHT22;11895;48.738;9.320;2022-08-20T14:37:52;24.40;99.90
23445;DHT22;11895;48.738;9.320;2022-08-20T14:41:18;25.00;99.90
23445;DHT22;11895;48.738;9.320;2022-08-20T14:44:44;26.40;99.90
23445;DHT22;11895;48.738;9.320;2022-08-20T14:48:10;27.90;99.90
23445;DHT22;11895;48.738;9.320;2022-08-20T14:51:35;27.40;99.90
23445;DHT22;11895;48.738;9.320;2022-08-20T14:55:06;25.40;99.90
23445;DHT22;11895;48.738;9.320;2022-08-20T15:05:25;29.70;99.90
23445;DHT22;11895;48.738;9.320;2022-08-20T15:08:51;30.60;99.90
23445;DHT22;11895;48.738;9.320;2022-08-20T15:12:22;31.80;99.90
23445;DHT22;11895;48.738;9.320;2022-08-20T15:15:48;32.70;99.90
23445;DHT22;11895;48.738;9.320;2022-08-20T15:19:14;34.10;99.90
23445;DHT22;11895;48.738;9.320;2022-08-20T15:21:41;35.20;99.90
23445;DHT22;11895;48.738;9.320;2022-08-20T15:24:12;35.80;97.20
23445;DHT22;11895;48.738;9.320;2022-08-20T15:26:45;36.40;99.90
23445;DHT22;11895;48.738;9.320;2022-08-20T15:29:12;36.90;99.70
23445;DHT22;11895;48.738;9.320;2022-08-20T15:32:48;37.40;97.10
23445;DHT22;11895;48.738;9.320;2022-08-20T15:36:15;37.90;90.70
23445;DHT22;11895;48.738;9.320;2022-08-20T15:39:45;38.20;92.40
23445;DHT22;11895;48.738;9.320;2022-08-20T15:43:10;38.30;88.80
23445;DHT22;11895;48.738;9.320;2022-08-20T15:45:42;38.60;82.30
23445;DHT22;11895;48.738;9.320;2022-08-20T15:48:14;38.90;79.00
23445;DHT22;11895;48.738;9.320;2022-08-20T16:07:13;38.20;76.80
23445;DHT22;11895;48.738;9.320;2022-08-20T16:10:07;38.10;75.90
23445;DHT22;11895;48.738;9.320;2022-08-20T16:12:46;38.50;76.00
23445;DHT22;11895;48.738;9.320;2022-08-20T16:15:23;38.30;73.60
23445;DHT22;11895;48.738;9.320;2022-08-20T16:20:41;35.90;78.70
23445;DHT22;11895;48.738;9.320;2022-08-20T16:23:14;34.60;81.40
23445;DHT22;11895;48.738;9.320;2022-08-20T16:32:30;31.20;91.10
23445;DHT22;11895;48.738;9.320;2022-08-20T16:38:36;29.40;92.90
23445;DHT22;11895;48.738;9.320;2022-08-20T16:44:14;27.60;96.60
23445;DHT22;11895;48.738;9.320;2022-08-20T16:59:58;26.50;99.90
23445;DHT22;11895;48.738;9.320;2022-08-20T17:02:47;26.50;99.90
23445;DHT22;11895;48.738;9.320;2022-08-20T17:20:11;25.90;99.90
23445;DHT22;11895;48.738;9.320;2022-08-20T17:23:50;25.80;99.90
23445;DHT22;11895;48.738;9.320;2022-08-20T17:26:36;25.60;99.90
23445;DHT22;11895;48.738;9.320;2022-08-20T17:29:13;25.50;99.90
23445;DHT22;11895;48.738;9.320;2022-08-20T17:31:50;25.30;99.90
23445;DHT22;11895;48.738;9.320;2022-08-20T17:34:27;25.20;99.90
23445;DHT22;11895;48.738;9.320;2022-08-20T17:37:04;25.20;99.90
23445;DHT22;11895;48.738;9.320;2022-08-20T17:39:43;25.10;99.90
23445;DHT22;11895;48.738;9.320;2022-08-20T17:42:17;25.00;99.90
23445;DHT22;11895;48.738;9.320;2022-08-20T17:45:11;24.90;99.90
23445;DHT22;11895;48.738;9.320;2022-08-20T17:47:47;24.90;99.90
23445;DHT22;11895;48.738;9.320;2022-08-20T17:50:16;24.80;99.90
23445;DHT22;11895;48.738;9.320;2022-08-20T17:52:51;24.80;99.90
23445;DHT22;11895;48.738;9.320;2022-08-20T17:55:23;24.80;99.90
23445;DHT22;11895;48.738;9.320;2022-08-20T17:57:53;24.60;99.90
23445;DHT22;11895;48.738;9.320;2022-08-20T18:00:26;24.40;99.90
23445;DHT22;11895;48.738;9.320;2022-08-20T18:02:59;24.40;99.90
23445;DHT22;11895;48.738;9.320;2022-08-20T18:05:42;24.30;99.90
23445;DHT22;11895;48.738;9.320;2022-08-20T18:08:35;24.20;99.90
23445;DHT22;11895;48.738;9.320;2022-08-20T18:22:47;23.10;99.90
23445;DHT22;11895;48.738;9.320;2022-08-20T18:25:27;23.10;99.90
23445;DHT22;11895;48.738;9.320;2022-08-20T18:28:07;23.00;99.90
23445;DHT22;11895;48.738;9.320;2022-08-20T18:30:53;22.90;99.90
23445;DHT22;11895;48.738;9.320;2022-08-20T18:33:29;22.80;99.90
23445;DHT22;11895;48.738;9.320;2022-08-20T18:39:00;22.60;99.90
23445;DHT22;11895;48.738;9.320;2022-08-20T18:41:35;22.40;99.90
23445;DHT22;11895;48.738;9.320;2022-08-20T18:44:34;22.30;99.90
23445;DHT22;11895;48.738;9.320;2022-08-20T18:47:17;22.20;99.90
23445;DHT22;11895;48.738;9.320;2022-08-20T18:49:45;22.00;99.90
23445;DHT22;11895;48.738;9.320;2022-08-20T18:52:27;21.90;99.90
23445;DHT22;11895;48.738;9.320;2022-08-20T18:54:58;21.90;99.90
23445;DHT22;11895;48.738;9.320;2022-08-20T18:57:32;21.90;99.90